createdAt,value
2023-02-19T00:01:39.047Z,99227.03
2023-02-19T00:04:08.322Z,99222.75
2023-02-19T00:06:35.795Z,99207.47
2023-02-19T00:09:03.596Z,99208.34
2023-02-19T00:11:33.567Z,99219.66
2023-02-19T00:14:01.999Z,99210.47
2023-02-19T00:16:34.953Z,99215.66
2023-02-19T00:19:04.002Z,99210.66
2023-02-19T00:21:31.190Z,99201.00
2023-02-19T00:24:03.368Z,99208.13
2023-02-19T00:26:30.600Z,99203.28
2023-02-19T00:28:57.825Z,99209.41
2023-02-19T00:31:32.836Z,99205.91
2023-02-19T00:34:05.346Z,99198.94
2023-02-19T00:36:37.670Z,99206.53
2023-02-19T00:39:06.383Z,99204.03
2023-02-19T00:41:33.442Z,99202.44
2023-02-19T00:44:03.809Z,99193.88
2023-02-19T00:46:39.442Z,99202.44
2023-02-19T00:49:08.382Z,99201.75
2023-02-19T00:51:38.008Z,99195.88
2023-02-19T00:54:06.076Z,99184.34
2023-02-19T00:56:33.325Z,99193.69
2023-02-19T00:59:00.009Z,99203.72
2023-02-19T01:01:26.633Z,99197.00
2023-02-19T01:03:53.532Z,99194.69
2023-02-19T01:06:21.345Z,99185.97
2023-02-19T01:08:48.506Z,99192.09
2023-02-19T01:11:15.798Z,99189.63
2023-02-19T01:13:43.668Z,99176.94
2023-02-19T01:16:14.843Z,99189.53
2023-02-19T01:18:42.343Z,99179.34
2023-02-19T01:21:13.398Z,99178.94
2023-02-19T01:23:40.521Z,99167.09
2023-02-19T01:26:09.475Z,99180.41
2023-02-19T01:28:36.229Z,99181.28
2023-02-19T01:31:04.565Z,99172.78
2023-02-19T01:33:31.790Z,99177.66
2023-02-19T01:35:58.794Z,99179.38
2023-02-19T01:38:25.565Z,99181.53
2023-02-19T01:40:56.968Z,99176.94
2023-02-19T01:43:24.341Z,99183.81
2023-02-19T01:45:51.375Z,99178.97
2023-02-19T01:48:32.949Z,99183.34
2023-02-19T01:51:10.949Z,99190.97
2023-02-19T01:53:42.006Z,99167.94
2023-02-19T01:56:09.786Z,99166.06
2023-02-19T01:58:38.333Z,99164.47
2023-02-19T02:01:07.607Z,99165.78
2023-02-19T02:03:37.949Z,99155.44
2023-02-19T02:06:12.560Z,99160.47
2023-02-19T02:08:58.661Z,99159.56
2023-02-19T02:11:25.653Z,99158.28
2023-02-19T02:13:52.883Z,99142.56
2023-02-19T02:16:29.355Z,99138.19
2023-02-19T02:19:16.268Z,99138.84
2023-02-19T02:21:45.908Z,99140.47
2023-02-19T02:24:24.495Z,99132.00
2023-02-19T02:27:01.239Z,99132.09
2023-02-19T02:29:48.170Z,99128.81
2023-02-19T02:33:16.933Z,99135.63
2023-02-19T02:35:58.694Z,99134.72
2023-02-19T02:38:29.731Z,99129.38
2023-02-19T02:40:57.310Z,99128.75
2023-02-19T02:43:25.452Z,99127.38
2023-02-19T02:45:52.686Z,99119.78
2023-02-19T02:48:42.099Z,99116.84
2023-02-19T02:51:13.079Z,99121.34
2023-02-19T02:54:20.371Z,99108.78
2023-02-19T02:56:48.942Z,99107.22
2023-02-19T02:59:19.618Z,99108.94
2023-02-19T03:02:14.080Z,99103.81
2023-02-19T03:05:08.663Z,99106.41
2023-02-19T03:07:39.610Z,99094.47
2023-02-19T03:10:10.594Z,99095.50
2023-02-19T03:12:57.737Z,99099.06
2023-02-19T03:15:47.990Z,99092.28
2023-02-19T03:18:36.390Z,99097.38
2023-02-19T03:21:05.417Z,99095.84
2023-02-19T03:23:53.560Z,99090.09
2023-02-19T03:26:21.658Z,99100.94
2023-02-19T03:29:11.778Z,99103.41
2023-02-19T03:31:44.188Z,99092.97
2023-02-19T03:34:17.156Z,99088.19
2023-02-19T03:36:49.655Z,99089.53
2023-02-19T03:39:22.354Z,99096.00
2023-02-19T03:42:00.000Z,99093.78
2023-02-19T03:44:43.092Z,99100.44
2023-02-19T03:47:27.742Z,99107.75
2023-02-19T03:50:27.379Z,99112.91
2023-02-19T03:53:00.503Z,99109.78
2023-02-19T03:55:36.920Z,99098.19
2023-02-19T03:58:06.261Z,99094.97
2023-02-19T04:00:42.893Z,99088.94
2023-02-19T04:03:27.696Z,99099.03
2023-02-19T04:06:01.920Z,99088.78
2023-02-19T04:08:32.073Z,99087.00
2023-02-19T04:11:04.198Z,99093.22
2023-02-19T04:13:40.870Z,99074.38
2023-02-19T04:16:11.206Z,99082.03
2023-02-19T04:18:41.072Z,99096.66
2023-02-19T04:21:09.370Z,99102.50
2023-02-19T04:23:44.190Z,99108.41
2023-02-19T04:26:13.480Z,99098.09
2023-02-19T04:28:40.377Z,99105.59
2023-02-19T04:31:07.362Z,99102.22
2023-02-19T04:33:34.274Z,99117.53
2023-02-19T04:36:01.228Z,99108.78
2023-02-19T04:38:27.876Z,99103.97
2023-02-19T04:40:54.594Z,99101.38
2023-02-19T04:43:21.260Z,99093.88
2023-02-19T04:45:48.018Z,99100.94
2023-02-19T04:48:14.917Z,99094.19
2023-02-19T04:50:41.575Z,99071.28
2023-02-19T04:53:08.387Z,99087.19
2023-02-19T04:55:38.922Z,99095.16
2023-02-19T04:58:05.694Z,99087.81
2023-02-19T05:00:34.012Z,99098.31
2023-02-19T05:03:01.392Z,99093.22
2023-02-19T05:05:28.300Z,99100.13
2023-02-19T05:07:55.015Z,99091.63
2023-02-19T05:10:21.614Z,99090.06
2023-02-19T05:12:48.285Z,99089.69
2023-02-19T05:15:14.958Z,99092.94
2023-02-19T05:17:41.618Z,99091.41
2023-02-19T05:20:08.920Z,99087.34
2023-02-19T05:22:35.618Z,99084.88
2023-02-19T05:25:02.283Z,99092.44
2023-02-19T05:27:30.754Z,99094.84
2023-02-19T05:29:57.427Z,99088.75
2023-02-19T05:32:24.147Z,99088.94
2023-02-19T05:34:51.259Z,99074.72
2023-02-19T05:37:17.992Z,99077.28
2023-02-19T05:39:44.547Z,99078.31
2023-02-19T05:42:13.735Z,99086.66
2023-02-19T05:44:40.434Z,99085.88
2023-02-19T05:47:07.137Z,99089.34
2023-02-19T05:49:33.822Z,99095.91
2023-02-19T05:52:00.547Z,99097.63
2023-02-19T05:54:30.251Z,99105.84
2023-02-19T05:56:57.302Z,99100.97
2023-02-19T05:59:26.060Z,99097.41
2023-02-19T06:01:54.070Z,99090.81
2023-02-19T06:04:21.053Z,99091.06
2023-02-19T06:06:48.326Z,99087.69
2023-02-19T06:09:14.927Z,99107.00
2023-02-19T06:11:43.365Z,99083.38
2023-02-19T06:14:12.787Z,99097.72
2023-02-19T06:16:39.718Z,99092.06
2023-02-19T06:19:06.316Z,99100.38
2023-02-19T06:21:33.176Z,99096.19
2023-02-19T06:24:04.609Z,99092.22
2023-02-19T06:26:31.237Z,99097.22
2023-02-19T06:28:57.846Z,99101.56
2023-02-19T06:31:24.604Z,99097.50
2023-02-19T06:33:51.205Z,99100.69
2023-02-19T06:36:20.141Z,99099.03
2023-02-19T06:38:47.379Z,99086.41
2023-02-19T06:41:14.830Z,99092.00
2023-02-19T06:43:42.384Z,99089.50
2023-02-19T06:46:11.649Z,99085.28
2023-02-19T06:48:40.486Z,99085.22
2023-02-19T06:51:07.266Z,99076.56
2023-02-19T06:53:33.876Z,99083.41
2023-02-19T06:56:03.453Z,99081.72
2023-02-19T06:58:31.371Z,99078.28
2023-02-19T07:00:58.229Z,99073.25
2023-02-19T07:03:26.384Z,99079.91
2023-02-19T07:05:53.181Z,99065.44
2023-02-19T07:08:19.892Z,99069.78
2023-02-19T07:10:53.691Z,99074.28
2023-02-19T07:13:20.270Z,99087.16
2023-02-19T07:15:46.811Z,99084.53
2023-02-19T07:18:13.506Z,99067.56
2023-02-19T07:20:40.132Z,99084.34
2023-02-19T07:23:06.821Z,99096.94
2023-02-19T07:25:33.449Z,99104.56
2023-02-19T07:28:00.086Z,99093.25
2023-02-19T07:30:26.706Z,99099.88
2023-02-19T07:32:53.402Z,99099.72
2023-02-19T07:35:19.989Z,99103.91
2023-02-19T07:37:46.720Z,99104.78
2023-02-19T07:40:13.467Z,99076.22
2023-02-19T07:42:40.240Z,99096.09
2023-02-19T07:45:07.184Z,99095.31
2023-02-19T07:47:33.812Z,99114.75
2023-02-19T07:50:00.372Z,99119.91
2023-02-19T07:52:27.303Z,99117.88
2023-02-19T07:54:53.903Z,99114.47
2023-02-19T07:57:20.614Z,99110.19
2023-02-19T07:59:47.303Z,99110.13
2023-02-19T08:02:39.379Z,99115.19
2023-02-19T08:05:06.832Z,99115.91
2023-02-19T08:07:35.119Z,99109.03
2023-02-19T08:10:22.922Z,99105.56
2023-02-19T08:13:15.864Z,99099.75
2023-02-19T08:15:42.824Z,99107.88
2023-02-19T08:18:10.706Z,99099.59
2023-02-19T08:20:37.407Z,99097.13
2023-02-19T08:23:04.327Z,99093.53
2023-02-19T08:25:31.137Z,99098.50
2023-02-19T08:27:57.751Z,99095.78
2023-02-19T08:30:24.536Z,99095.78
2023-02-19T08:32:51.247Z,99091.53
2023-02-19T08:35:18.069Z,99093.78
2023-02-19T08:37:45.092Z,99088.63
2023-02-19T08:40:12.413Z,99087.00
2023-02-19T08:42:39.326Z,99082.06
2023-02-19T08:45:06.373Z,99079.47
2023-02-19T08:47:35.593Z,99083.56
2023-02-19T08:50:02.626Z,99085.31
2023-02-19T08:52:29.259Z,99076.03
2023-02-19T08:54:56.492Z,99081.91
2023-02-19T08:57:23.576Z,99093.53
2023-02-19T08:59:50.561Z,99091.78
2023-02-19T09:02:17.151Z,99084.84
2023-02-19T09:04:43.860Z,99087.41
2023-02-19T09:07:12.463Z,99084.81
2023-02-19T09:09:40.192Z,99077.09
2023-02-19T09:12:12.521Z,99076.19
2023-02-19T09:14:39.451Z,99079.38
2023-02-19T09:17:08.524Z,99075.81
2023-02-19T09:19:36.898Z,99073.94
2023-02-19T09:22:04.945Z,99071.22
2023-02-19T09:24:32.472Z,99070.22
2023-02-19T09:26:59.326Z,99071.00
2023-02-19T09:29:27.410Z,99081.16
2023-02-19T09:31:58.565Z,99067.63
2023-02-19T09:34:26.725Z,99061.91
2023-02-19T09:36:54.168Z,99077.78
2023-02-19T09:39:21.684Z,99081.09
2023-02-19T09:41:55.402Z,99054.53
2023-02-19T09:44:30.201Z,99079.84
2023-02-19T09:46:58.623Z,99072.16
2023-02-19T09:49:49.881Z,99063.78
2023-02-19T09:52:28.555Z,99069.56
2023-02-19T09:54:59.433Z,99064.34
2023-02-19T09:57:29.961Z,99064.31
2023-02-19T10:00:05.886Z,99067.69
2023-02-19T10:02:33.014Z,99061.56
2023-02-19T10:04:59.991Z,99060.50
2023-02-19T10:07:36.401Z,99049.91
2023-02-19T10:10:21.577Z,99049.13
2023-02-19T10:12:52.323Z,99052.28
2023-02-19T10:15:32.303Z,99053.94
2023-02-19T10:17:59.157Z,99060.47
2023-02-19T10:20:28.003Z,99049.28
2023-02-19T10:23:03.388Z,99063.50
2023-02-19T10:25:31.805Z,99048.69
2023-02-19T10:28:00.154Z,99050.53
2023-02-19T10:30:33.627Z,99040.16
2023-02-19T10:33:09.521Z,99047.72
2023-02-19T10:35:51.093Z,99053.41
2023-02-19T10:38:20.487Z,99047.41
2023-02-19T10:40:47.467Z,99044.44
2023-02-19T10:43:31.142Z,99039.94
2023-02-19T10:45:59.925Z,99034.22
2023-02-19T10:48:37.138Z,99037.75
2023-02-19T10:51:11.135Z,99038.69
2023-02-19T10:53:40.716Z,99039.19
2023-02-19T10:56:08.875Z,99029.78
2023-02-19T10:58:37.703Z,99030.47
2023-02-19T11:01:21.033Z,99028.50
2023-02-19T11:03:52.490Z,99023.56
2023-02-19T11:06:26.933Z,99017.09
2023-02-19T11:09:01.100Z,99006.91
2023-02-19T11:11:40.033Z,99007.38
2023-02-19T11:14:18.954Z,99002.44
2023-02-19T11:16:52.423Z,99005.22
2023-02-19T11:19:24.362Z,99006.47
2023-02-19T11:21:51.713Z,99002.41
2023-02-19T11:24:40.553Z,99003.00
2023-02-19T11:27:18.290Z,98987.22
2023-02-19T11:29:45.110Z,98988.69
2023-02-19T11:32:21.181Z,98994.06
2023-02-19T11:34:48.149Z,98983.28
2023-02-19T11:37:20.890Z,98978.56
2023-02-19T11:39:50.197Z,98973.03
2023-02-19T11:42:35.214Z,98972.41
2023-02-19T11:45:07.795Z,98965.69
2023-02-19T11:47:52.686Z,98954.19
2023-02-19T11:50:29.352Z,98964.06
2023-02-19T11:53:24.934Z,98948.97
2023-02-19T11:56:15.173Z,98941.09
2023-02-19T11:59:02.107Z,98940.59
2023-02-19T12:01:37.751Z,98933.31
2023-02-19T12:04:17.867Z,98922.94
2023-02-19T12:06:56.715Z,98918.19
2023-02-19T12:09:26.097Z,98905.78
2023-02-19T12:12:06.015Z,98907.81
2023-02-19T12:14:47.652Z,98908.16
2023-02-19T12:17:45.186Z,98896.03
2023-02-19T12:20:42.047Z,98894.72
2023-02-19T12:23:31.506Z,98892.44
2023-02-19T12:26:31.462Z,98886.00
2023-02-19T12:29:03.863Z,98874.97
2023-02-19T12:31:40.778Z,98872.41
2023-02-19T12:34:24.926Z,98866.25
2023-02-19T12:37:17.306Z,98867.44
2023-02-19T12:39:52.892Z,98854.41
2023-02-19T12:42:51.622Z,98859.13
2023-02-19T12:45:33.459Z,98848.03
2023-02-19T12:48:25.035Z,98846.19
2023-02-19T12:51:21.612Z,98842.53
2023-02-19T12:53:51.644Z,98841.00
2023-02-19T12:56:44.583Z,98837.28
2023-02-19T12:59:49.296Z,98834.13
2023-02-19T13:02:24.568Z,98816.56
2023-02-19T13:05:36.686Z,98825.59
2023-02-19T13:08:22.062Z,98821.28
2023-02-19T13:10:56.450Z,98817.38
2023-02-19T13:13:34.551Z,98818.78
2023-02-19T13:16:09.782Z,98809.38
2023-02-19T13:18:41.755Z,98808.63
2023-02-19T13:21:09.061Z,98811.66
2023-02-19T13:23:56.518Z,98809.94
2023-02-19T13:26:44.843Z,98795.09
2023-02-19T13:29:43.349Z,98794.94
2023-02-19T13:32:34.417Z,98788.13
2023-02-19T13:35:25.653Z,98788.41
2023-02-19T13:37:54.652Z,98785.44
2023-02-19T13:40:30.195Z,98787.53
2023-02-19T13:43:07.040Z,98784.28
2023-02-19T13:45:43.481Z,98779.38
2023-02-19T13:48:33.572Z,98777.81
2023-02-19T13:51:19.586Z,98776.47
2023-02-19T13:53:46.102Z,98772.25
2023-02-19T13:56:34.191Z,98777.44
2023-02-19T13:59:33.837Z,98763.91
2023-02-19T14:02:03.620Z,98762.16
2023-02-19T14:04:52.840Z,98750.41
2023-02-19T14:07:21.417Z,98753.31
2023-02-19T14:09:48.692Z,98750.88
2023-02-19T14:12:16.206Z,98750.94
2023-02-19T14:14:47.140Z,98745.75
2023-02-19T14:17:28.838Z,98742.03
2023-02-19T14:20:17.536Z,98748.13
2023-02-19T14:22:47.373Z,98739.66
2023-02-19T14:25:52.742Z,98743.81
2023-02-19T14:28:19.388Z,98743.09
2023-02-19T14:30:50.925Z,98732.75
2023-02-19T14:33:21.608Z,98733.50
2023-02-19T14:35:52.570Z,98732.16
2023-02-19T14:38:44.591Z,98738.75
2023-02-19T14:41:13.613Z,98741.75
2023-02-19T14:43:41.050Z,98738.13
2023-02-19T14:46:18.518Z,98725.00
2023-02-19T14:48:49.449Z,98722.41
2023-02-19T14:51:44.276Z,98724.88
2023-02-19T14:54:16.299Z,98714.44
2023-02-19T14:56:47.582Z,98698.53
2023-02-19T14:59:22.938Z,98705.84
2023-02-19T15:02:04.418Z,98713.13
2023-02-19T15:04:36.943Z,98704.72
2023-02-19T15:07:08.405Z,98706.28
2023-02-19T15:09:44.552Z,98703.81
2023-02-19T15:12:21.454Z,98703.09
2023-02-19T15:14:50.253Z,98716.44
2023-02-19T15:17:26.122Z,98725.22
2023-02-19T15:19:54.433Z,98710.03
2023-02-19T15:22:24.408Z,98709.81
2023-02-19T15:24:51.585Z,98710.53
2023-02-19T15:27:24.095Z,98707.03
2023-02-19T15:29:53.668Z,98710.13
2023-02-19T15:32:26.628Z,98717.16
2023-02-19T15:34:59.190Z,98705.53
2023-02-19T15:37:28.755Z,98712.91
2023-02-19T15:39:57.255Z,98716.81
2023-02-19T15:42:26.981Z,98712.19
2023-02-19T15:44:59.444Z,98710.97
2023-02-19T15:47:41.442Z,98703.47
2023-02-19T15:50:14.835Z,98697.66
2023-02-19T15:52:44.095Z,98688.06
2023-02-19T15:55:19.796Z,98689.22
2023-02-19T15:57:55.893Z,98693.75
2023-02-19T16:00:54.670Z,98694.97
2023-02-19T16:03:24.335Z,98690.59
2023-02-19T16:06:02.250Z,98705.25
2023-02-19T16:08:31.581Z,98709.34
2023-02-19T16:11:00.753Z,98712.69
2023-02-19T16:13:29.950Z,98709.22
2023-02-19T16:16:29.776Z,98712.03
2023-02-19T16:18:57.241Z,98708.59
2023-02-19T16:21:27.161Z,98713.09
2023-02-19T16:24:06.786Z,98724.41
2023-02-19T16:26:41.414Z,98723.75
2023-02-19T16:29:23.585Z,98729.69
2023-02-19T16:31:54.652Z,98734.59
2023-02-19T16:34:39.244Z,98736.66
2023-02-19T16:37:36.579Z,98741.81
2023-02-19T16:40:09.512Z,98750.25
2023-02-19T16:42:38.173Z,98752.84
2023-02-19T16:45:08.487Z,98760.66
2023-02-19T16:47:40.544Z,98762.44
2023-02-19T16:50:13.173Z,98775.41
2023-02-19T16:52:54.782Z,98779.03
2023-02-19T16:55:22.197Z,98785.59
2023-02-19T16:57:49.381Z,98783.28
2023-02-19T17:00:24.746Z,98797.13
2023-02-19T17:02:54.452Z,98795.72
2023-02-19T17:05:23.450Z,98803.09
2023-02-19T17:07:50.408Z,98801.00
2023-02-19T17:10:25.158Z,98796.56
2023-02-19T17:12:53.356Z,98799.34
2023-02-19T17:15:20.400Z,98803.16
2023-02-19T17:17:47.141Z,98801.91
2023-02-19T17:20:22.083Z,98804.94
2023-02-19T17:22:48.683Z,98814.09
2023-02-19T17:25:15.254Z,98820.59
2023-02-19T17:27:42.010Z,98816.28
2023-02-19T17:30:23.692Z,98834.72
2023-02-19T17:32:50.464Z,98845.81
2023-02-19T17:35:17.107Z,98846.81
2023-02-19T17:37:43.843Z,98831.25
2023-02-19T17:40:32.300Z,98850.66
2023-02-19T17:42:59.653Z,98850.06
2023-02-19T17:45:26.223Z,98854.03
2023-02-19T17:47:53.124Z,98857.38
2023-02-19T17:50:26.609Z,98861.16
2023-02-19T17:52:53.344Z,98868.22
2023-02-19T17:55:20.045Z,98868.81
2023-02-19T17:57:50.705Z,98879.16
2023-02-19T18:00:20.719Z,98876.66
2023-02-19T18:02:47.569Z,98877.63
2023-02-19T18:05:14.367Z,98888.81
2023-02-19T18:07:41.620Z,98890.44
2023-02-19T18:10:08.935Z,98884.34
2023-02-19T18:12:36.050Z,98888.03
2023-02-19T18:15:02.778Z,98883.41
2023-02-19T18:17:29.481Z,98885.44
2023-02-19T18:19:56.437Z,98886.19
2023-02-19T18:22:23.113Z,98889.31
2023-02-19T18:24:51.638Z,98901.63
2023-02-19T18:27:20.370Z,98897.38
2023-02-19T18:29:54.845Z,98897.28
2023-02-19T18:32:23.553Z,98892.00
2023-02-19T18:34:51.874Z,98898.59
2023-02-19T18:37:19.562Z,98919.53
2023-02-19T18:39:46.601Z,98914.75
2023-02-19T18:42:13.870Z,98918.44
2023-02-19T18:44:40.751Z,98924.16
2023-02-19T18:47:08.316Z,98930.53
2023-02-19T18:49:35.151Z,98927.69
2023-02-19T18:52:01.854Z,98936.16
2023-02-19T18:54:29.872Z,98941.97
2023-02-19T18:56:57.263Z,98936.13
2023-02-19T18:59:24.057Z,98933.50
2023-02-19T19:01:51.460Z,98933.41
2023-02-19T19:04:18.689Z,98934.47
2023-02-19T19:06:45.386Z,98924.53
2023-02-19T19:09:12.108Z,98929.75
2023-02-19T19:11:38.845Z,98933.19
2023-02-19T19:14:05.532Z,98933.59
2023-02-19T19:16:32.358Z,98934.78
2023-02-19T19:18:59.174Z,98938.31
2023-02-19T19:21:25.913Z,98943.56
2023-02-19T19:23:52.625Z,98938.81
2023-02-19T19:26:19.683Z,98951.25
2023-02-19T19:28:46.562Z,98955.16
2023-02-19T19:31:15.599Z,98955.72
2023-02-19T19:33:43.250Z,98971.56
2023-02-19T19:36:11.262Z,98967.47
2023-02-19T19:38:38.339Z,98985.78
2023-02-19T19:41:05.861Z,98985.53
2023-02-19T19:43:33.234Z,98989.19
2023-02-19T19:46:00.514Z,98990.72
2023-02-19T19:48:29.867Z,98992.53
2023-02-19T19:50:57.060Z,98997.31
2023-02-19T19:53:24.690Z,99003.47
2023-02-19T19:55:51.646Z,99005.13
2023-02-19T19:58:22.688Z,99010.53
2023-02-19T20:00:49.430Z,99008.84
2023-02-19T20:03:16.046Z,99005.19
2023-02-19T20:05:42.789Z,98999.69
2023-02-19T20:08:09.476Z,99006.09
2023-02-19T20:10:36.159Z,99010.44
2023-02-19T20:13:04.320Z,99012.81
2023-02-19T20:15:31.158Z,99025.47
2023-02-19T20:17:58.033Z,99014.25
2023-02-19T20:20:24.790Z,99006.88
2023-02-19T20:22:52.687Z,99030.28
2023-02-19T20:25:21.800Z,99032.22
2023-02-19T20:27:50.003Z,99022.78
2023-02-19T20:30:18.582Z,99020.44
2023-02-19T20:32:45.259Z,99026.06
2023-02-19T20:35:12.301Z,99039.22
2023-02-19T20:37:40.249Z,99034.97
2023-02-19T20:40:08.240Z,99039.38
2023-02-19T20:42:34.966Z,99044.59
2023-02-19T20:45:01.733Z,99046.53
2023-02-19T20:47:28.325Z,99047.66
2023-02-19T20:49:55.011Z,99054.28
2023-02-19T20:52:21.882Z,99057.44
2023-02-19T20:54:48.565Z,99071.06
2023-02-19T20:57:15.174Z,99063.31
2023-02-19T20:59:44.133Z,99073.56
2023-02-19T21:02:29.413Z,99078.84
2023-02-19T21:04:57.027Z,99079.78
2023-02-19T21:07:27.126Z,99080.13
2023-02-19T21:09:54.505Z,99073.50
2023-02-19T21:12:22.558Z,99076.13
2023-02-19T21:14:49.402Z,99084.72
2023-02-19T21:17:16.166Z,99069.56
2023-02-19T21:19:43.022Z,99085.63
2023-02-19T21:22:09.573Z,99085.06
2023-02-19T21:24:36.320Z,99084.50
2023-02-19T21:27:02.889Z,99069.50
2023-02-19T21:29:29.540Z,99076.81
2023-02-19T21:31:57.135Z,99084.25
2023-02-19T21:34:26.455Z,99083.63
2023-02-19T21:36:53.895Z,99082.50
2023-02-19T21:39:23.309Z,99094.66
2023-02-19T21:41:50.324Z,99098.25
2023-02-19T21:44:17.481Z,99091.91
2023-02-19T21:46:44.357Z,99086.94
2023-02-19T21:49:11.580Z,99087.56
2023-02-19T21:51:41.101Z,99088.56
2023-02-19T21:54:13.715Z,99090.22
2023-02-19T21:56:40.380Z,99093.78
2023-02-19T21:59:07.049Z,99101.81
2023-02-19T22:01:39.871Z,99100.41
2023-02-19T22:04:07.578Z,99103.06
2023-02-19T22:06:34.792Z,99124.66
2023-02-19T22:09:01.964Z,99122.06
2023-02-19T22:11:28.891Z,99119.59
2023-02-19T22:13:55.548Z,99124.00
2023-02-19T22:16:22.464Z,99117.25
2023-02-19T22:18:51.276Z,99126.78
2023-02-19T22:21:19.002Z,99131.19
2023-02-19T22:23:47.260Z,99129.72
2023-02-19T22:26:27.660Z,99129.88
2023-02-19T22:28:55.025Z,99129.63
2023-02-19T22:31:23.508Z,99134.94
2023-02-19T22:33:50.257Z,99128.66
2023-02-19T22:36:19.550Z,99133.59
2023-02-19T22:38:46.883Z,99131.84
2023-02-19T22:41:15.176Z,99126.88
2023-02-19T22:43:42.124Z,99128.06
2023-02-19T22:46:20.307Z,99144.13
2023-02-19T22:48:47.099Z,99150.28
2023-02-19T22:51:16.469Z,99158.97
2023-02-19T22:53:47.640Z,99139.13
2023-02-19T22:56:15.903Z,99141.84
2023-02-19T22:58:43.290Z,99138.44
2023-02-19T23:01:11.450Z,99143.78
2023-02-19T23:03:58.315Z,99142.88
2023-02-19T23:06:27.829Z,99152.47
2023-02-19T23:08:56.668Z,99146.41
2023-02-19T23:11:26.430Z,99148.97
2023-02-19T23:13:53.505Z,99147.38
2023-02-19T23:16:20.624Z,99150.94
2023-02-19T23:18:47.906Z,99152.69
2023-02-19T23:21:15.714Z,99150.50
2023-02-19T23:23:43.466Z,99146.34
2023-02-19T23:26:10.753Z,99149.66
2023-02-19T23:28:40.217Z,99139.50
2023-02-19T23:31:07.346Z,99140.31
2023-02-19T23:33:34.301Z,99147.59
2023-02-19T23:36:01.032Z,99148.28
2023-02-19T23:38:27.860Z,99156.47
2023-02-19T23:40:54.520Z,99134.19
2023-02-19T23:43:21.520Z,99158.72
2023-02-19T23:45:48.271Z,99158.72
2023-02-19T23:48:14.984Z,99159.78
2023-02-19T23:50:41.826Z,99164.59
2023-02-19T23:53:08.474Z,99162.81
2023-02-19T23:55:35.114Z,99175.25
2023-02-19T23:58:01.771Z,99176.47
